Fu Ning Wan — VRDN9 — position and weather

sailwx.info

Track history (hours):
 
Tides and Currents Weather Stations Pressure Air Temp Water Temp Dewpoint Dewpoint Depression Visibility Wind Speed Wind Dir Waves Ship Positions

Fu Ning Wan

Last reported at 2015-Aug-03 13:30 UTC. Time now 2015-Aug-04 03:20 UTC.
Position N 35°23' E 129°26'.

Length 107 m; draft 5.5 m.

Type: Tanker. MMSI: 477003600.

Date/timePositionNaut miles runAvg speedWind from/ knotsBaromVisibWave heightAir tempDewpointWater temp
2015-Aug-03 13:30N 35°23' E 129°26'1212.8
2015-Aug-03 12:32N 35°11' E 129°22'43511.4
2015-Aug-01 22:31N 30°26' E 122°51'1211.8
2015-Aug-01 21:31N 30°23' E 122°38'1613.9
2015-Aug-01 20:24N 30°22' E 122°20'2613.3
2015-Aug-01 18:26N 30°23' E 121°50'9 9.7
2015-Aug-01 17:33N 30°14' E 121°47'1411.8
2015-Aug-01 16:24N 30°01' E 121°48'0 0.0
2015-Jul-30 15:33N 30°00' E 121°48'12 1.2
2015-Jul-30 06:08N 30°12' E 121°46'11 4.1
2015-Jul-30 03:31N 30°22' E 121°48'1110.4
2015-Jul-30 02:31N 30°23' E 122°01'3911.5
2015-Jul-29 23:11N 30°25' E 122°45'710.8
2015-Jul-29 22:33N 30°27' E 122°53'14 9.6
2015-Jul-29 21:06N 30°35' E 123°06'5 9.4
2015-Jul-29 20:33N 30°38' E 123°11'9 9.0
2015-Jul-29 19:32N 30°43' E 123°20'8 8.5
2015-Jul-29 18:33N 30°48' E 123°28'17 8.3
2015-Jul-29 16:31N 30°58' E 123°44'9 8.6
2015-Jul-29 15:31N 31°03' E 123°52'9 8.7
2015-Jul-29 14:32N 31°07' E 124°01'19 9.7
2015-Jul-29 12:33N 31°18' E 124°19'  
Track history (hours):
 
Tides and Currents Weather Stations Pressure Air Temp Water Temp Dewpoint Dewpoint Depression Visibility Wind Speed Wind Dir Waves Ship Positions

Fu Ning Wan

Last reported at 2015-Aug-03 13:30 UTC. Time now 2015-Aug-04 03:20 UTC.
Position N 35°23' E 129°26'.

Length 107 m; draft 5.5 m.

Type: Tanker. MMSI: 477003600.

Date/timePositionNaut miles runAvg speedWind from/ knotsBaromVisibWave heightAir tempDewpointWater temp
2015-Aug-03 13:30N 35°23' E 129°26'1212.8
2015-Aug-03 12:32N 35°11' E 129°22'43511.4
2015-Aug-01 22:31N 30°26' E 122°51'1211.8
2015-Aug-01 21:31N 30°23' E 122°38'1613.9
2015-Aug-01 20:24N 30°22' E 122°20'2613.3
2015-Aug-01 18:26N 30°23' E 121°50'9 9.7
2015-Aug-01 17:33N 30°14' E 121°47'1411.8
2015-Aug-01 16:24N 30°01' E 121°48'0 0.0
2015-Jul-30 15:33N 30°00' E 121°48'12 1.2
2015-Jul-30 06:08N 30°12' E 121°46'11 4.1
2015-Jul-30 03:31N 30°22' E 121°48'1110.4
2015-Jul-30 02:31N 30°23' E 122°01'3911.5
2015-Jul-29 23:11N 30°25' E 122°45'710.8
2015-Jul-29 22:33N 30°27' E 122°53'14 9.6
2015-Jul-29 21:06N 30°35' E 123°06'5 9.4
2015-Jul-29 20:33N 30°38' E 123°11'9 9.0
2015-Jul-29 19:32N 30°43' E 123°20'8 8.5
2015-Jul-29 18:33N 30°48' E 123°28'17 8.3
2015-Jul-29 16:31N 30°58' E 123°44'9 8.6
2015-Jul-29 15:31N 31°03' E 123°52'9 8.7
2015-Jul-29 14:32N 31°07' E 124°01'19 9.7
2015-Jul-29 12:33N 31°18' E 124°19'  

Dump ship's entire track history